Time;durP1;ratioP1;P1;durP2;ratioP2;P2;SDS_P1;SDS_P2;PMS_P1;PMS_P2;Temp;Humidity;BMP_temperature;BMP_pressure;BME280_temperature;BME280_humidity;BME280_pressure;Samples;Min_cycle;Max_cycle;Signal;HPM_P1;HPM_P2
2020/12/09 00:01:49;;;;;;;6.32;4.72;;;10.60;52.00;;;;;;5056086;28;20079;-82
2020/12/09 00:04:15;;;;;;;6.63;4.88;;;10.60;52.00;;;;;;5057255;28;20029;-83
2020/12/09 00:06:41;;;;;;;5.78;4.20;;;10.60;52.00;;;;;;5055209;28;20078;-83
2020/12/09 00:09:14;;;;;;;6.72;4.55;;;10.60;51.90;;;;;;5070890;28;20099;-83
2020/12/09 00:11:41;;;;;;;6.07;4.28;;;10.60;51.90;;;;;;5077373;28;20450;-81
2020/12/09 00:14:08;;;;;;;11.07;4.90;;;10.60;51.90;;;;;;5075915;28;20054;-81
2020/12/09 00:16:34;;;;;;;9.25;6.28;;;10.60;51.80;;;;;;5056949;28;20025;-82
2020/12/09 00:19:03;;;;;;;8.20;5.85;;;10.50;52.00;;;;;;5056692;28;20024;-83
2020/12/09 00:21:30;;;;;;;10.35;5.68;;;10.50;51.90;;;;;;5056749;28;20478;-83
2020/12/09 00:23:56;;;;;;;7.78;5.35;;;10.50;52.00;;;;;;5056450;28;20049;-83
2020/12/09 00:26:23;;;;;;;7.30;5.10;;;10.50;52.20;;;;;;5056665;28;20100;-82
2020/12/09 00:28:51;;;;;;;6.03;4.50;;;10.50;52.30;;;;;;5069296;28;20036;-82
2020/12/09 00:31:18;;;;;;;7.18;4.90;;;10.40;52.30;;;;;;5076591;28;20031;-83
2020/12/09 00:33:46;;;;;;;6.82;4.85;;;10.40;52.30;;;;;;5076552;28;20486;-81
2020/12/09 00:36:16;;;;;;;12.27;5.20;;;10.40;52.40;;;;;;5076253;28;20478;-81
2020/12/09 00:38:42;;;;;;;13.13;7.40;;;10.40;52.50;;;;;;5075093;28;20027;-83
2020/12/09 00:41:23;;;;;;;18.15;10.05;;;10.40;52.50;;;;;;5076415;28;20043;-82
2020/12/09 00:43:49;;;;;;;17.42;9.52;;;10.40;52.70;;;;;;5075046;28;20035;-83
2020/12/09 00:46:19;;;;;;;15.60;7.28;;;10.40;52.60;;;;;;5073921;28;20040;-84
2020/12/09 00:48:46;;;;;;;11.60;6.28;;;10.50;52.60;;;;;;5076205;28;20388;-82
2020/12/09 00:51:15;;;;;;;10.25;6.88;;;10.50;52.60;;;;;;5076251;28;20021;-82
2020/12/09 00:53:41;;;;;;;9.32;6.55;;;10.50;52.60;;;;;;5055900;28;20107;-83
2020/12/09 00:56:11;;;;;;;9.77;5.78;;;10.50;52.70;;;;;;5055929;28;20060;-83
2020/12/09 00:58:37;;;;;;;10.70;6.45;;;10.50;52.70;;;;;;5055586;28;20021;-84
2020/12/09 01:01:08;;;;;;;10.43;6.07;;;10.50;52.70;;;;;;5056225;28;20029;-82
2020/12/09 01:03:34;;;;;;;10.82;6.93;;;10.50;52.70;;;;;;5056164;28;20020;-83
2020/12/09 01:06:01;;;;;;;10.88;7.18;;;10.50;52.70;;;;;;5059141;28;20033;-82
2020/12/09 01:08:27;;;;;;;8.40;5.32;;;10.50;52.70;;;;;;5054920;28;20082;-81
2020/12/09 01:10:54;;;;;;;8.18;5.55;;;10.50;52.70;;;;;;5055655;28;20025;-81
2020/12/09 01:13:20;;;;;;;8.95;6.15;;;10.50;52.70;;;;;;5055759;28;20027;-82
2020/12/09 01:15:45;;;;;;;9.27;6.25;;;10.50;52.70;;;;;;5069190;28;20021;-82
2020/12/09 01:18:11;;;;;;;9.32;6.43;;;10.50;52.70;;;;;;5054733;28;20029;-83
2020/12/09 01:20:40;;;;;;;8.77;6.43;;;10.50;52.80;;;;;;5055975;28;20459;-82
2020/12/09 01:23:06;;;;;;;7.72;5.60;;;10.50;52.80;;;;;;5054540;28;20052;-83
2020/12/09 01:25:32;;;;;;;8.32;5.47;;;10.50;52.80;;;;;;5056021;28;20029;-82
2020/12/09 01:28:02;;;;;;;7.15;5.32;;;10.50;52.80;;;;;;5055793;28;20028;-83
2020/12/09 01:30:30;;;;;;;7.45;5.32;;;10.50;52.80;;;;;;5055783;28;20039;-82
2020/12/09 01:32:56;;;;;;;5.18;4.22;;;10.50;52.80;;;;;;5059430;28;20028;-84
2020/12/09 01:35:22;;;;;;;6.75;5.13;;;10.50;52.70;;;;;;5073411;28;20039;-84
2020/12/09 01:37:52;;;;;;;5.25;3.85;;;10.50;52.80;;;;;;5064277;28;20473;-81
2020/12/09 01:40:18;;;;;;;5.35;4.32;;;10.50;52.70;;;;;;5074490;28;20477;-84
2020/12/09 01:42:44;;;;;;;5.97;4.50;;;10.60;52.80;;;;;;5076160;28;20050;-82
2020/12/09 01:45:10;;;;;;;5.40;4.25;;;10.60;52.80;;;;;;5074591;28;20039;-83
2020/12/09 01:47:41;;;;;;;5.63;4.45;;;10.60;52.80;;;;;;5074032;28;20033;-82
2020/12/09 01:50:07;;;;;;;6.97;5.30;;;10.60;52.90;;;;;;5073974;28;20070;-82
2020/12/09 01:52:33;;;;;;;8.05;5.47;;;10.60;52.90;;;;;;5071066;28;20047;-81
2020/12/09 01:54:59;;;;;;;7.45;5.97;;;10.60;53.00;;;;;;5055131;28;20466;-81
2020/12/09 01:57:25;;;;;;;8.18;5.80;;;10.60;53.00;;;;;;5054933;28;20057;-82
2020/12/09 01:59:50;;;;;;;9.88;6.80;;;10.60;53.00;;;;;;5061363;28;20017;-83
2020/12/09 02:02:16;;;;;;;7.38;5.65;;;10.60;53.00;;;;;;5073784;28;20024;-82
2020/12/09 02:04:45;;;;;;;7.22;5.40;;;10.70;53.00;;;;;;5074909;28;20028;-79
2020/12/09 02:07:11;;;;;;;7.55;5.95;;;10.70;53.00;;;;;;5073591;28;20038;-81
2020/12/09 02:09:37;;;;;;;7.68;5.90;;;10.70;53.00;;;;;;5074721;28;20032;-81
2020/12/09 02:12:03;;;;;;;7.93;5.97;;;10.70;52.90;;;;;;5067451;28;20066;-80
2020/12/09 02:14:28;;;;;;;8.93;6.47;;;10.70;52.90;;;;;;5054292;28;20432;-81
2020/12/09 02:16:57;;;;;;;8.32;5.65;;;10.70;52.90;;;;;;5053513;28;20024;-80
2020/12/09 02:19:23;;;;;;;9.35;6.72;;;10.70;52.90;;;;;;5071696;28;20028;-80
2020/12/09 02:21:49;;;;;;;9.65;6.93;;;10.70;52.90;;;;;;5073434;28;20024;-80
2020/12/09 02:24:15;;;;;;;9.45;6.95;;;10.70;52.90;;;;;;5073138;28;20056;-82
2020/12/09 02:26:46;;;;;;;12.25;8.52;;;10.70;52.80;;;;;;5074592;28;20024;-82
2020/12/09 02:29:12;;;;;;;16.08;9.93;;;10.70;52.80;;;;;;5073349;28;20078;-80
2020/12/09 02:31:39;;;;;;;17.63;10.75;;;10.80;52.90;;;;;;5074817;28;20016;-82
2020/12/09 02:34:06;;;;;;;17.70;9.88;;;10.70;53.00;;;;;;5073373;28;20040;-83
2020/12/09 02:36:32;;;;;;;12.73;8.57;;;10.70;53.00;;;;;;5074327;28;20028;-82
2020/12/09 02:38:58;;;;;;;13.13;8.32;;;10.70;53.20;;;;;;5072528;28;20021;-82
2020/12/09 02:41:24;;;;;;;13.18;8.75;;;10.70;53.20;;;;;;5073239;28;20020;-82
2020/12/09 02:43:50;;;;;;;11.05;8.23;;;10.70;53.30;;;;;;5073267;28;20541;-83
2020/12/09 02:46:16;;;;;;;15.63;8.98;;;10.70;53.20;;;;;;5073267;28;20050;-82
2020/12/09 02:48:42;;;;;;;14.65;9.77;;;10.70;53.30;;;;;;5074459;28;20489;-81
2020/12/09 02:51:07;;;;;;;10.95;8.02;;;10.70;53.40;;;;;;5072408;28;20025;-81
2020/12/09 02:53:33;;;;;;;11.70;7.85;;;10.70;53.40;;;;;;5074437;28;20536;-80
2020/12/09 02:55:59;;;;;;;14.88;8.43;;;10.70;53.40;;;;;;5074261;28;20021;-81
2020/12/09 02:58:26;;;;;;;10.90;7.75;;;10.60;53.50;;;;;;5074101;28;20111;-81
2020/12/09 03:00:52;;;;;;;11.45;7.95;;;10.70;53.50;;;;;;5073006;28;20032;-82
2020/12/09 03:03:18;;;;;;;10.85;7.78;;;10.70;53.60;;;;;;5071336;28;20025;-82
2020/12/09 03:05:44;;;;;;;14.00;7.93;;;10.60;54.20;;;;;;5074131;28;20024;-82
2020/12/09 03:08:10;;;;;;;11.63;7.55;;;10.60;53.60;;;;;;5074406;28;20036;-81
2020/12/09 03:10:36;;;;;;;10.90;7.05;;;10.60;53.60;;;;;;5069835;28;20493;-81
2020/12/09 03:13:01;;;;;;;13.00;7.65;;;10.60;53.60;;;;;;5053007;28;20029;-81
2020/12/09 03:15:27;;;;;;;10.40;6.85;;;10.60;53.60;;;;;;5052727;28;20104;-83
2020/12/09 03:17:53;;;;;;;11.00;7.75;;;10.60;53.60;;;;;;5052748;28;20021;-82
2020/12/09 03:20:19;;;;;;;11.57;8.23;;;10.60;53.60;;;;;;5055219;28;20090;-83
2020/12/09 03:22:45;;;;;;;12.05;9.10;;;10.60;53.70;;;;;;5057875;28;20036;-82
2020/12/09 03:25:10;;;;;;;13.35;9.65;;;10.60;53.90;;;;;;5058021;28;20044;-82
2020/12/09 03:27:36;;;;;;;12.85;9.88;;;10.60;54.00;;;;;;5057394;28;20478;-83
2020/12/09 03:30:04;;;;;;;16.05;9.63;;;10.50;54.10;;;;;;5056733;28;20029;-81
2020/12/09 03:32:30;;;;;;;11.73;8.60;;;10.50;54.10;;;;;;5075521;28;20047;-81
2020/12/09 03:34:56;;;;;;;11.80;8.77;;;10.50;54.20;;;;;;5077757;28;20032;-83
2020/12/09 03:37:21;;;;;;;16.27;10.38;;;10.50;54.30;;;;;;5076542;28;20021;-83
2020/12/09 03:39:47;;;;;;;13.38;9.55;;;10.40;54.40;;;;;;5077661;28;20025;-82
2020/12/09 03:42:13;;;;;;;13.80;9.98;;;10.40;54.50;;;;;;5077594;28;20028;-83
2020/12/09 03:44:39;;;;;;;17.88;10.50;;;10.40;54.60;;;;;;5077611;28;20474;-82
2020/12/09 03:47:05;;;;;;;12.20;8.98;;;10.40;54.70;;;;;;5076384;28;20488;-82
2020/12/09 03:49:31;;;;;;;11.95;9.55;;;10.40;54.70;;;;;;5076072;28;20024;-83
2020/12/09 03:51:57;;;;;;;13.70;9.85;;;10.40;54.70;;;;;;5077420;28;20020;-83
2020/12/09 03:54:24;;;;;;;12.52;9.52;;;10.50;54.80;;;;;;5077821;28;20433;-82
2020/12/09 03:56:50;;;;;;;12.77;9.20;;;10.50;54.90;;;;;;5075984;28;20024;-82
2020/12/09 03:59:16;;;;;;;14.07;9.65;;;10.50;54.90;;;;;;5070643;28;20029;-83
2020/12/09 04:01:41;;;;;;;12.10;8.60;;;10.50;55.10;;;;;;5057646;28;20054;-82
2020/12/09 04:04:07;;;;;;;14.57;9.93;;;10.50;55.10;;;;;;5055085;28;20132;-83
2020/12/09 04:06:33;;;;;;;15.50;9.13;;;10.50;55.20;;;;;;5065821;28;20036;-82
2020/12/09 04:08:59;;;;;;;11.52;8.95;;;10.50;55.20;;;;;;5074622;28;20024;-83
2020/12/09 04:11:24;;;;;;;12.60;8.50;;;10.50;55.30;;;;;;5057006;28;20029;-83
2020/12/09 04:13:50;;;;;;;14.10;10.05;;;10.50;55.20;;;;;;5055768;28;20036;-82
2020/12/09 04:16:16;;;;;;;11.80;8.82;;;10.50;55.40;;;;;;5057032;28;20383;-82
2020/12/09 04:18:42;;;;;;;13.45;9.57;;;10.50;55.40;;;;;;5058091;28;20021;-81
2020/12/09 04:21:07;;;;;;;14.85;9.80;;;10.50;55.40;;;;;;5056992;28;20094;-82
2020/12/09 04:23:33;;;;;;;12.30;9.00;;;10.50;55.70;;;;;;5056827;28;20124;-81
2020/12/09 04:25:59;;;;;;;14.20;9.63;;;10.50;55.70;;;;;;5056784;28;20021;-82
2020/12/09 04:28:24;;;;;;;13.05;9.55;;;10.50;55.70;;;;;;5056774;28;20087;-83
2020/12/09 04:30:50;;;;;;;15.15;10.63;;;10.50;55.70;;;;;;5062640;28;20029;-83
2020/12/09 04:33:16;;;;;;;13.32;10.23;;;10.50;55.80;;;;;;5075904;28;20477;-81
2020/12/09 04:35:42;;;;;;;12.70;9.10;;;10.50;56.30;;;;;;5075384;28;20017;-83
2020/12/09 04:38:11;;;;;;;13.75;9.85;;;10.50;55.70;;;;;;5074629;28;20017;-81
2020/12/09 04:40:37;;;;;;;12.77;9.18;;;10.50;55.90;;;;;;5076043;28;20020;-82
2020/12/09 04:43:03;;;;;;;14.30;10.40;;;10.50;55.80;;;;;;5076739;28;20046;-82
2020/12/09 04:45:31;;;;;;;14.68;10.32;;;10.50;56.00;;;;;;5076309;28;20389;-82
2020/12/09 04:48:10;;;;;;;14.60;9.25;;;10.50;56.10;;;;;;5076443;28;20607;-83
2020/12/09 04:50:52;;;;;;;14.52;10.75;;;10.50;56.10;;;;;;5076270;28;20052;-83
2020/12/09 04:53:25;;;;;;;14.63;9.82;;;10.50;56.20;;;;;;5075235;28;20405;-82
2020/12/09 04:55:57;;;;;;;14.57;10.68;;;10.50;56.10;;;;;;5076370;28;20378;-81
2020/12/09 04:58:38;;;;;;;16.65;10.95;;;10.50;56.30;;;;;;5075377;28;20016;-82
2020/12/09 05:01:12;;;;;;;14.90;9.75;;;10.50;56.40;;;;;;5056635;28;20032;-81
2020/12/09 05:03:49;;;;;;;13.43;9.82;;;10.50;56.30;;;;;;5054920;28;20029;-83
2020/12/09 05:06:18;;;;;;;14.60;9.68;;;10.50;56.30;;;;;;5054985;28;20029;-83
2020/12/09 05:08:55;;;;;;;14.95;9.95;;;10.50;56.40;;;;;;5055896;28;20079;-82
2020/12/09 05:11:23;;;;;;;14.55;10.23;;;10.50;56.50;;;;;;5056048;28;20520;-82
2020/12/09 05:13:56;;;;;;;13.23;9.57;;;10.50;56.50;;;;;;5055993;28;20028;-83
2020/12/09 05:16:23;;;;;;;15.23;10.38;;;10.50;56.50;;;;;;5054868;28;20104;-84
2020/12/09 05:18:56;;;;;;;18.35;10.80;;;10.50;56.50;;;;;;5055896;28;20021;-83
2020/12/09 05:21:25;;;;;;;15.05;9.32;;;10.50;56.60;;;;;;5056523;28;20025;-81
2020/12/09 05:23:59;;;;;;;15.32;10.50;;;10.50;56.50;;;;;;5055735;28;20480;-83
2020/12/09 05:26:30;;;;;;;12.27;9.30;;;10.50;56.60;;;;;;5055878;28;20027;-83
2020/12/09 05:29:12;;;;;;;12.95;9.40;;;10.50;56.50;;;;;;5054344;28;20540;-83
2020/12/09 05:31:40;;;;;;;13.35;9.20;;;10.50;56.60;;;;;;5056132;28;20016;-83
2020/12/09 05:34:18;;;;;;;11.73;8.43;;;10.50;56.50;;;;;;5054477;28;20023;-83
2020/12/09 05:36:47;;;;;;;12.93;8.45;;;10.40;55.90;;;;;;5054593;28;20052;-82
2020/12/09 05:39:13;;;;;;;11.23;7.57;;;10.40;55.70;;;;;;5055711;28;20486;-82
2020/12/09 05:41:39;;;;;;;11.05;6.95;;;10.40;55.60;;;;;;5056268;28;20083;-81
2020/12/09 05:44:05;;;;;;;10.88;6.85;;;10.40;55.50;;;;;;5054469;28;20025;-82
2020/12/09 05:46:31;;;;;;;10.00;7.50;;;10.40;55.50;;;;;;5058936;28;20029;-81
2020/12/09 05:48:57;;;;;;;13.10;9.30;;;10.40;55.50;;;;;;5068109;28;20032;-81
2020/12/09 05:51:24;;;;;;;13.77;8.60;;;10.40;55.40;;;;;;5078881;28;20025;-82
2020/12/09 05:53:50;;;;;;;13.35;7.95;;;10.30;55.20;;;;;;5086758;28;20040;-81
2020/12/09 05:56:17;;;;;;;10.32;7.35;;;10.30;55.10;;;;;;5090404;28;20037;-80
2020/12/09 05:58:47;;;;;;;12.02;8.02;;;10.30;55.10;;;;;;5086375;28;20078;-80
2020/12/09 06:01:18;;;;;;;12.45;6.90;;;10.30;55.10;;;;;;5082485;28;20051;-82
2020/12/09 06:03:46;;;;;;;8.93;6.80;;;10.20;55.10;;;;;;5064306;28;20475;-82
2020/12/09 06:06:25;;;;;;;10.00;7.25;;;10.20;55.20;;;;;;5058179;28;20025;-81
2020/12/09 06:08:55;;;;;;;9.38;6.40;;;10.20;55.10;;;;;;5054362;28;20449;-80
2020/12/09 06:11:26;;;;;;;11.95;6.70;;;10.20;55.10;;;;;;5055693;28;20028;-82
2020/12/09 06:13:52;;;;;;;10.02;6.95;;;10.20;55.10;;;;;;5055315;28;20105;-82
2020/12/09 06:16:20;;;;;;;9.70;6.38;;;10.20;55.10;;;;;;5053868;28;20025;-82
2020/12/09 06:18:48;;;;;;;8.98;6.30;;;10.10;55.10;;;;;;5053724;28;20100;-83
2020/12/09 06:21:14;;;;;;;9.38;6.60;;;10.20;55.10;;;;;;5054343;28;20029;-82
2020/12/09 06:23:41;;;;;;;10.13;6.30;;;10.10;55.00;;;;;;5054292;28;20088;-82
2020/12/09 06:26:07;;;;;;;11.00;6.78;;;10.10;55.00;;;;;;5059329;28;20024;-80
2020/12/09 06:28:41;;;;;;;9.65;6.70;;;10.10;55.00;;;;;;5057790;28;20029;-81
2020/12/09 06:31:14;;;;;;;10.82;7.05;;;10.10;55.00;;;;;;5053430;28;20033;-83
2020/12/09 06:33:53;;;;;;;11.77;7.78;;;10.10;55.00;;;;;;5034630;28;20036;-81
2020/12/09 06:36:20;;;;;;;12.88;8.40;;;10.10;55.00;;;;;;5066927;28;20075;-81
2020/12/09 06:39:05;;;;;;;11.00;7.82;;;10.10;55.00;;;;;;5053648;28;20112;-84
2020/12/09 06:41:40;;;;;;;13.48;9.40;;;10.10;55.00;;;;;;5053384;28;20106;-83
2020/12/09 06:44:16;;;;;;;17.70;10.35;;;10.10;54.80;;;;;;5053336;28;20083;-82
2020/12/09 06:46:50;;;;;;;16.45;10.85;;;10.00;54.60;;;;;;5054286;28;20021;-82
2020/12/09 06:49:28;;;;;;;20.08;11.98;;;10.00;54.70;;;;;;5053141;28;20025;-82
2020/12/09 06:51:58;;;;;;;18.75;12.32;;;10.00;54.70;;;;;;5054567;28;20021;-82
2020/12/09 06:54:43;;;;;;;19.10;11.57;;;9.90;54.60;;;;;;5064863;28;20033;-81
2020/12/09 06:57:25;;;;;;;17.33;10.90;;;9.90;54.60;;;;;;5074252;28;20016;-80
2020/12/09 07:00:15;;;;;;;18.75;11.88;;;9.90;54.60;;;;;;5074625;28;20032;-83
2020/12/09 07:02:42;;;;;;;17.02;11.13;;;9.90;54.70;;;;;;5071049;28;20070;-83
2020/12/09 07:05:10;;;;;;;18.45;11.70;;;9.80;54.60;;;;;;5067754;28;20424;-80
2020/12/09 07:07:38;;;;;;;21.00;12.30;;;9.90;54.80;;;;;;5055318;28;20041;-81
2020/12/09 07:10:26;;;;;;;19.52;12.35;;;9.80;54.90;;;;;;5054167;28;20059;-81
2020/12/09 07:13:07;;;;;;;18.45;11.57;;;9.80;54.90;;;;;;5054071;28;20068;-80
2020/12/09 07:15:34;;;;;;;21.02;11.82;;;9.80;54.80;;;;;;5055271;28;20021;-83
2020/12/09 07:18:00;;;;;;;19.40;11.95;;;9.80;54.90;;;;;;5072997;28;20029;-82
2020/12/09 07:20:26;;;;;;;18.63;12.60;;;9.80;54.90;;;;;;5074246;28;20017;-84
2020/12/09 07:22:51;;;;;;;18.08;11.30;;;9.80;55.00;;;;;;5074075;28;20516;-81
2020/12/09 07:25:18;;;;;;;24.08;13.63;;;9.80;54.90;;;;;;5072527;28;20025;-83
2020/12/09 07:27:45;;;;;;;23.50;12.05;;;9.80;55.00;;;;;;5071987;28;20371;-83
2020/12/09 07:30:14;;;;;;;21.33;12.38;;;9.80;55.10;;;;;;5053241;28;20505;-81
2020/12/09 07:32:40;;;;;;;22.17;13.10;;;9.80;55.30;;;;;;5033807;28;20390;-83
2020/12/09 07:35:09;;;;;;;22.83;13.63;;;9.80;55.40;;;;;;5034688;28;20025;-81
2020/12/09 07:37:39;;;;;;;25.02;15.70;;;9.80;55.20;;;;;;5033152;28;20018;-82
2020/12/09 07:40:29;;;;;;;23.38;13.10;;;9.80;54.90;;;;;;5033782;28;20026;-81
2020/12/09 07:43:04;;;;;;;25.02;14.48;;;9.80;54.80;;;;;;5032656;28;20032;-82
2020/12/09 07:45:31;;;;;;;23.48;14.27;;;9.80;54.90;;;;;;5033941;28;20391;-83
2020/12/09 07:48:02;;;;;;;23.65;12.88;;;9.80;54.90;;;;;;5032583;28;20025;-82
2020/12/09 07:50:28;;;;;;;22.80;14.32;;;9.80;55.00;;;;;;5033315;28;20108;-81
2020/12/09 07:52:54;;;;;;;19.02;12.27;;;9.80;55.00;;;;;;5073977;28;20032;-83
2020/12/09 07:55:20;;;;;;;32.80;13.20;;;9.80;55.10;;;;;;5073828;28;20020;-81
2020/12/09 07:57:46;;;;;;;26.95;15.70;;;9.80;55.30;;;;;;5072312;28;20017;-82
2020/12/09 08:00:14;;;;;;;32.40;17.23;;;9.80;55.40;;;;;;5072431;28;20481;-82
2020/12/09 08:02:42;;;;;;;26.85;15.88;;;9.80;55.30;;;;;;5072291;28;20052;-81
2020/12/09 08:05:33;;;;;;;30.23;15.88;;;9.80;55.40;;;;;;5056925;28;20112;-83
2020/12/09 08:08:00;;;;;;;25.23;14.27;;;9.80;55.40;;;;;;5055950;28;20029;-84
2020/12/09 08:10:34;;;;;;;35.42;18.73;;;9.80;55.40;;;;;;5055870;28;20049;-80
2020/12/09 08:13:00;;;;;;;35.42;18.58;;;9.70;55.10;;;;;;5056248;28;20025;-80
2020/12/09 08:15:25;;;;;;;30.95;15.93;;;9.70;55.00;;;;;;5055794;28;20032;-81
2020/12/09 08:17:51;;;;;;;32.22;16.60;;;9.70;55.20;;;;;;5056697;28;20025;-83
2020/12/09 08:20:17;;;;;;;26.92;15.95;;;9.70;55.40;;;;;;5055906;28;20025;-84
2020/12/09 08:23:01;;;;;;;28.45;17.10;;;9.70;55.60;;;;;;5055585;28;20535;-79
2020/12/09 08:25:29;;;;;;;44.25;20.17;;;9.60;55.60;;;;;;5057501;28;20449;-83
2020/12/09 08:28:06;;;;;;;44.45;20.85;;;9.60;55.60;;;;;;5056645;28;20474;-80
2020/12/09 08:30:33;;;;;;;37.92;17.83;;;9.50;55.80;;;;;;5056826;28;20107;-81
2020/12/09 08:33:11;;;;;;;34.47;18.17;;;9.50;55.90;;;;;;5055098;28;20413;-82
2020/12/09 08:35:52;;;;;;;30.80;16.13;;;9.50;56.30;;;;;;5055020;28;20470;-84
2020/12/09 08:38:33;;;;;;;25.50;14.15;;;9.50;56.30;;;;;;5056354;28;20025;-81
2020/12/09 08:41:03;;;;;;;28.17;15.50;;;9.50;56.60;;;;;;5057059;28;20031;-81
2020/12/09 08:43:31;;;;;;;32.92;18.20;;;9.50;56.80;;;;;;5054798;28;20363;-84
2020/12/09 08:45:58;;;;;;;28.60;17.38;;;9.50;56.80;;;;;;5056794;28;20025;-87
2020/12/09 08:48:24;;;;;;;25.13;15.55;;;9.40;56.80;;;;;;5066241;28;20029;-83
2020/12/09 08:50:51;;;;;;;33.58;17.50;;;9.40;56.80;;;;;;5077118;28;20466;-85
2020/12/09 08:53:19;;;;;;;31.98;18.00;;;9.40;56.90;;;;;;5076859;28;20020;-84
2020/12/09 08:55:46;;;;;;;27.60;16.10;;;9.40;56.90;;;;;;5075810;28;20059;-84
2020/12/09 08:58:14;;;;;;;29.55;17.27;;;9.40;57.00;;;;;;5076660;28;20053;-86
2020/12/09 09:00:41;;;;;;;25.02;15.30;;;9.40;56.80;;;;;;5076690;28;20029;-87
2020/12/09 09:03:11;;;;;;;22.33;14.20;;;9.40;56.80;;;;;;5059903;28;20470;-86
2020/12/09 09:05:40;;;;;;;28.60;16.38;;;9.40;56.90;;;;;;5056665;28;20487;-82
2020/12/09 09:08:15;;;;;;;28.42;17.25;;;9.40;56.80;;;;;;5056562;28;20021;-84
2020/12/09 09:10:42;;;;;;;26.50;16.38;;;9.50;57.40;;;;;;5055379;28;20028;-85
2020/12/09 09:13:09;;;;;;;24.65;14.65;;;9.50;56.70;;;;;;5055299;28;20175;-82
2020/12/09 09:15:35;;;;;;;27.48;15.77;;;9.50;56.70;;;;;;5055299;28;20528;-83
2020/12/09 09:18:05;;;;;;;30.35;17.08;;;9.50;56.80;;;;;;5054717;28;20478;-83
2020/12/09 09:20:32;;;;;;;22.40;14.35;;;9.50;56.80;;;;;;5056533;28;20414;-84
2020/12/09 09:22:58;;;;;;;31.05;16.27;;;9.50;56.80;;;;;;5056515;28;20068;-85
2020/12/09 09:25:24;;;;;;;25.55;15.68;;;9.50;56.90;;;;;;5055066;28;20068;-83
2020/12/09 09:27:51;;;;;;;27.17;15.30;;;9.50;56.90;;;;;;5055370;28;20379;-84
2020/12/09 09:30:19;;;;;;;30.10;17.25;;;9.50;56.90;;;;;;5055232;28;20025;-84
2020/12/09 09:32:45;;;;;;;30.80;17.77;;;9.60;56.90;;;;;;5055260;28;20024;-87
2020/12/09 09:35:11;;;;;;;29.38;17.23;;;9.50;56.80;;;;;;5056292;28;20458;-83
2020/12/09 09:37:39;;;;;;;29.52;16.95;;;9.50;56.60;;;;;;5054718;28;20053;-86
2020/12/09 09:40:04;;;;;;;29.38;16.80;;;9.50;56.60;;;;;;5056204;28;20024;-85
2020/12/09 09:42:30;;;;;;;26.25;16.25;;;9.50;56.60;;;;;;5054839;28;20025;-86
2020/12/09 09:44:56;;;;;;;26.88;17.13;;;9.50;56.60;;;;;;5056195;28;20078;-82
2020/12/09 09:47:22;;;;;;;29.80;18.52;;;9.50;56.60;;;;;;5056006;28;20109;-84
2020/12/09 09:49:48;;;;;;;31.98;18.55;;;9.40;56.50;;;;;;5054498;28;20027;-81
2020/12/09 09:52:13;;;;;;;29.73;18.67;;;9.40;56.50;;;;;;5075378;28;20028;-86
2020/12/09 09:54:39;;;;;;;25.73;15.15;;;9.40;56.60;;;;;;5074409;28;20205;-82
2020/12/09 09:57:05;;;;;;;29.80;17.83;;;9.40;56.80;;;;;;5074829;28;20024;-82
2020/12/09 09:59:31;;;;;;;29.13;17.67;;;9.40;56.80;;;;;;5075855;28;20029;-83
2020/12/09 10:01:57;;;;;;;31.48;17.30;;;9.40;56.80;;;;;;5061011;28;20029;-86
2020/12/09 10:04:24;;;;;;;28.38;15.60;;;9.30;56.70;;;;;;5052853;28;20028;-83
2020/12/09 10:06:52;;;;;;;26.92;15.88;;;9.40;56.90;;;;;;5051988;28;20025;-84
2020/12/09 10:09:19;;;;;;;28.45;16.13;;;9.40;57.00;;;;;;5054250;28;20031;-84
2020/12/09 10:11:45;;;;;;;26.20;15.27;;;9.40;57.10;;;;;;5053706;28;20025;-84
2020/12/09 10:14:11;;;;;;;25.35;15.27;;;9.40;57.10;;;;;;5055167;28;20014;-82
2020/12/09 10:16:40;;;;;;;32.88;18.55;;;9.50;57.10;;;;;;5054226;28;20031;-85
2020/12/09 10:19:06;;;;;;;28.63;16.83;;;9.50;57.00;;;;;;5054206;28;20029;-84
2020/12/09 10:21:33;;;;;;;25.70;16.15;;;9.50;56.80;;;;;;5054418;28;20021;-81
2020/12/09 10:24:00;;;;;;;30.00;16.80;;;9.50;56.80;;;;;;5054208;28;20128;-86
2020/12/09 10:26:32;;;;;;;25.58;15.70;;;9.50;56.80;;;;;;5055799;28;20021;-86
2020/12/09 10:29:02;;;;;;;27.30;17.02;;;9.50;56.90;;;;;;5043967;28;20102;-84
2020/12/09 10:31:42;;;;;;;27.73;17.00;;;9.50;56.90;;;;;;5037173;28;20163;-85
2020/12/09 10:34:09;;;;;;;27.00;15.57;;;9.50;56.90;;;;;;5035937;28;20022;-80
2020/12/09 10:36:36;;;;;;;26.27;16.20;;;9.50;57.10;;;;;;5035828;28;20099;-87
2020/12/09 10:39:03;;;;;;;30.73;17.10;;;9.50;57.50;;;;;;5047786;28;20021;-87
2020/12/09 10:41:29;;;;;;;27.77;16.20;;;9.50;57.50;;;;;;5055666;28;20055;-82
2020/12/09 10:43:55;;;;;;;27.40;16.08;;;9.50;57.70;;;;;;5052037;28;20067;-86
2020/12/09 10:46:30;;;;;;;27.83;17.15;;;9.60;57.90;;;;;;5061151;28;20028;-88
2020/12/09 10:48:55;;;;;;;28.45;17.58;;;9.50;57.90;;;;;;5073451;28;20362;-85
2020/12/09 10:51:21;;;;;;;29.42;17.65;;;9.50;57.60;;;;;;5059617;28;20028;-89
2020/12/09 10:53:47;;;;;;;25.60;17.05;;;9.50;57.40;;;;;;5054332;28;20033;-84
2020/12/09 10:56:13;;;;;;;27.48;16.60;;;9.40;57.30;;;;;;5054492;28;20029;-87
2020/12/09 10:58:38;;;;;;;29.38;17.70;;;9.30;57.40;;;;;;5054875;28;20025;-81
2020/12/09 11:01:04;;;;;;;33.15;18.80;;;9.30;57.40;;;;;;5053371;28;20541;-86
2020/12/09 11:03:30;;;;;;;26.65;16.33;;;9.30;57.60;;;;;;5053006;28;20086;-86
2020/12/09 11:05:56;;;;;;;29.63;17.70;;;9.20;57.60;;;;;;5058920;28;20478;-82
2020/12/09 11:08:22;;;;;;;30.13;18.70;;;9.30;57.80;;;;;;5054094;28;20489;-86
2020/12/09 11:10:48;;;;;;;28.63;17.77;;;9.20;57.90;;;;;;5038798;28;20029;-84
2020/12/09 11:13:20;;;;;;;28.08;17.27;;;9.20;57.90;;;;;;5071461;28;20020;-85
2020/12/09 11:15:52;;;;;;;29.50;16.95;;;9.20;57.90;;;;;;5039583;28;20018;-85
2020/12/09 11:18:25;;;;;;;35.38;17.60;;;9.20;58.00;;;;;;5052779;28;20028;-87
2020/12/09 11:20:56;;;;;;;30.17;17.27;;;9.30;58.00;;;;;;5053827;28;20028;-84
2020/12/09 11:23:29;;;;;;;26.67;16.52;;;9.30;57.90;;;;;;5040853;28;20056;-87
2020/12/09 11:26:02;;;;;;;29.55;17.67;;;9.30;57.80;;;;;;5035189;28;20025;-83
2020/12/09 11:28:36;;;;;;;28.23;17.50;;;9.30;57.70;;;;;;5044479;28;20021;-84
2020/12/09 11:31:09;;;;;;;28.08;17.02;;;9.30;57.70;;;;;;5053135;28;20120;-84
2020/12/09 11:33:42;;;;;;;27.45;16.75;;;9.30;57.70;;;;;;5054360;28;20029;-88
2020/12/09 11:36:15;;;;;;;27.20;17.20;;;9.30;57.60;;;;;;5058616;28;20028;-83
2020/12/09 11:38:44;;;;;;;30.35;17.60;;;9.20;57.50;;;;;;5054933;28;20159;-82
2020/12/09 11:41:14;;;;;;;28.38;16.75;;;9.20;57.50;;;;;;5055028;28;20034;-85
2020/12/09 11:43:44;;;;;;;28.65;17.27;;;9.20;57.70;;;;;;5053518;28;20033;-80
2020/12/09 11:46:10;;;;;;;29.00;16.52;;;9.20;58.10;;;;;;5054006;28;20098;-82
2020/12/09 11:48:37;;;;;;;30.67;16.70;;;9.20;58.20;;;;;;5057372;28;20482;-81
2020/12/09 11:51:03;;;;;;;33.13;17.63;;;9.30;58.20;;;;;;5055826;28;20044;-84
2020/12/09 11:53:29;;;;;;;28.92;18.58;;;9.30;58.00;;;;;;5055536;28;20025;-85
2020/12/09 11:55:55;;;;;;;28.17;17.52;;;9.20;57.90;;;;;;5056410;28;20094;-80
2020/12/09 11:58:20;;;;;;;30.20;17.92;;;9.20;57.70;;;;;;5056579;28;20029;-86
2020/12/09 12:00:46;;;;;;;28.13;18.08;;;9.20;57.70;;;;;;5057489;28;20041;-84
2020/12/09 12:03:12;;;;;;;35.13;20.48;;;9.20;57.70;;;;;;5056588;28;20032;-80
2020/12/09 12:05:40;;;;;;;32.08;18.83;;;9.20;57.70;;;;;;5057532;28;20029;-85
2020/12/09 12:08:10;;;;;;;31.73;18.38;;;9.10;57.60;;;;;;5072421;28;20029;-81
2020/12/09 12:10:36;;;;;;;35.30;19.58;;;9.10;57.70;;;;;;5065688;28;20035;-85
2020/12/09 12:13:03;;;;;;;33.00;19.42;;;9.10;57.80;;;;;;5077399;28;20032;-84
2020/12/09 12:15:29;;;;;;;30.00;18.15;;;9.00;58.30;;;;;;5076927;28;20066;-83
2020/12/09 12:17:55;;;;;;;30.00;19.17;;;9.00;57.80;;;;;;5077558;28;20465;-84
2020/12/09 12:20:20;;;;;;;29.65;17.33;;;9.00;57.90;;;;;;5062052;28;20389;-85
2020/12/09 12:22:46;;;;;;;29.30;17.63;;;9.00;57.90;;;;;;5056608;28;20107;-81
2020/12/09 12:25:15;;;;;;;29.50;18.42;;;9.00;58.10;;;;;;5056106;28;20029;-83
2020/12/09 12:27:41;;;;;;;28.27;15.50;;;9.00;58.00;;;;;;5056075;28;20082;-84
2020/12/09 12:30:07;;;;;;;26.80;16.55;;;9.00;58.00;;;;;;5055550;28;20033;-81
2020/12/09 12:32:33;;;;;;;27.70;15.65;;;9.00;58.10;;;;;;5053801;28;20021;-81
2020/12/09 12:34:59;;;;;;;29.05;16.55;;;9.10;58.30;;;;;;5050394;28;20029;-72
2020/12/09 12:37:25;;;;;;;28.40;16.90;;;9.10;58.50;;;;;;5041276;28;20071;-73
2020/12/09 12:39:50;;;;;;;35.58;20.35;;;9.10;58.60;;;;;;5044064;28;20052;-72
2020/12/09 12:42:19;;;;;;;39.05;21.05;;;9.10;58.60;;;;;;5055380;28;20428;-72
2020/12/09 12:44:45;;;;;;;34.00;19.30;;;9.10;58.50;;;;;;5055412;28;20040;-73